Brough, United Kingdom
Current Conditions -  °F | °C
As of 8:20 PM on Thursday 29 Jan 2015 (Local Time) from EGNJ Reporting Station
Few Clouds Few Clouds  
Wind Chill: -5°   Ceiling: Unl
Heat Index:   Visibility: 6mi
Dew Point: -1°   Wind: 10mph
Humidity: 93%   Direction: 210°SSW
Pressure: 28.76"   Gusts: NA
Location:  53.7°N, 0.58°W
Report Text: EGNJ 292020Z 21009KT 9999 FEW025 M00/M01 Q0974
Loading
Personal Weather Stations






























Interactive Weather Map New forecast layout! Learn more

10-Day Weather Forecast

Advertisements
Track Severe Weather on mobile